sensor_id;sensor_type;location;lat;lon;timestamp;pressure;altitude;pressure_sealevel;temperature;humidity
4858;BME280;58975;51.978;8.472;2023-11-22T00:02:23;101383.78;;;2.24;100.00
4858;BME280;58975;51.978;8.472;2023-11-22T00:07:23;101388.50;;;2.14;100.00
4858;BME280;58975;51.978;8.472;2023-11-22T00:12:20;101402.88;;;2.01;100.00
4858;BME280;58975;51.978;8.472;2023-11-22T00:17:16;101404.88;;;1.93;100.00
4858;BME280;58975;51.978;8.472;2023-11-22T00:22:13;101404.28;;;1.83;100.00
4858;BME280;58975;51.978;8.472;2023-11-22T00:27:11;101406.22;;;1.77;100.00
4858;BME280;58975;51.978;8.472;2023-11-22T00:44:44;101446.91;;;1.62;100.00
4858;BME280;58975;51.978;8.472;2023-11-22T00:49:40;101447.94;;;1.57;100.00
4858;BME280;58975;51.978;8.472;2023-11-22T00:54:37;101462.88;;;1.53;100.00
4858;BME280;58975;51.978;8.472;2023-11-22T00:59:33;101467.66;;;1.39;100.00
4858;BME280;58975;51.978;8.472;2023-11-22T01:04:29;101480.06;;;1.32;100.00
4858;BME280;58975;51.978;8.472;2023-11-22T01:09:30;101491.56;;;1.28;100.00
4858;BME280;58975;51.978;8.472;2023-11-22T01:14:28;101493.28;;;1.29;100.00
4858;BME280;58975;51.978;8.472;2023-11-22T01:19:25;101482.06;;;1.23;100.00
4858;BME280;58975;51.978;8.472;2023-11-22T01:24:22;101486.25;;;1.30;100.00
4858;BME280;58975;51.978;8.472;2023-11-22T01:29:19;101478.81;;;1.13;100.00
4858;BME280;58975;51.978;8.472;2023-11-22T01:34:16;101480.19;;;0.92;100.00
4858;BME280;58975;51.978;8.472;2023-11-22T01:39:13;101486.47;;;0.85;100.00
4858;BME280;58975;51.978;8.472;2023-11-22T01:44:10;101484.94;;;0.77;100.00
4858;BME280;58975;51.978;8.472;2023-11-22T01:49:09;101482.50;;;0.68;100.00
4858;BME280;58975;51.978;8.472;2023-11-22T01:54:06;101490.53;;;0.62;100.00
4858;BME280;58975;51.978;8.472;2023-11-22T01:59:03;101489.69;;;0.60;100.00
4858;BME280;58975;51.978;8.472;2023-11-22T02:04:00;101495.94;;;0.54;100.00
4858;BME280;58975;51.978;8.472;2023-11-22T02:08:57;101515.09;;;0.58;100.00
4858;BME280;58975;51.978;8.472;2023-11-22T02:13:54;101520.31;;;0.58;100.00
4858;BME280;58975;51.978;8.472;2023-11-22T02:18:50;101521.34;;;0.51;100.00
4858;BME280;58975;51.978;8.472;2023-11-22T02:23:47;101535.38;;;0.48;100.00
4858;BME280;58975;51.978;8.472;2023-11-22T02:28:44;101543.53;;;0.34;100.00
4858;BME280;58975;51.978;8.472;2023-11-22T02:33:40;101555.78;;;0.32;100.00
4858;BME280;58975;51.978;8.472;2023-11-22T02:38:38;101568.22;;;0.23;100.00
4858;BME280;58975;51.978;8.472;2023-11-22T02:43:34;101575.28;;;0.19;100.00
4858;BME280;58975;51.978;8.472;2023-11-22T02:48:32;101573.69;;;0.11;100.00
4858;BME280;58975;51.978;8.472;2023-11-22T02:53:29;101566.75;;;0.08;100.00
4858;BME280;58975;51.978;8.472;2023-11-22T02:58:30;101585.22;;;0.00;100.00
4858;BME280;58975;51.978;8.472;2023-11-22T03:03:27;101589.63;;;0.00;100.00
4858;BME280;58975;51.978;8.472;2023-11-22T03:08:24;101595.84;;;-0.07;100.00
4858;BME280;58975;51.978;8.472;2023-11-22T03:13:21;101617.56;;;-0.02;100.00
4858;BME280;58975;51.978;8.472;2023-11-22T03:18:17;101621.06;;;-0.03;100.00
4858;BME280;58975;51.978;8.472;2023-11-22T03:23:14;101614.00;;;0.02;100.00
4858;BME280;58975;51.978;8.472;2023-11-22T03:28:13;101614.94;;;-0.02;100.00
4858;BME280;58975;51.978;8.472;2023-11-22T03:33:10;101608.25;;;-0.17;100.00
4858;BME280;58975;51.978;8.472;2023-11-22T03:38:06;101612.69;;;-0.23;100.00
4858;BME280;58975;51.978;8.472;2023-11-22T03:43:04;101612.69;;;-0.22;100.00
4858;BME280;58975;51.978;8.472;2023-11-22T03:48:01;101638.75;;;-0.16;100.00
4858;BME280;58975;51.978;8.472;2023-11-22T03:52:57;101646.50;;;-0.08;100.00
4858;BME280;58975;51.978;8.472;2023-11-22T03:57:54;101657.84;;;-0.09;100.00
4858;BME280;58975;51.978;8.472;2023-11-22T04:02:50;101675.25;;;-0.05;100.00
4858;BME280;58975;51.978;8.472;2023-11-22T04:07:47;101681.34;;;-0.05;100.00
4858;BME280;58975;51.978;8.472;2023-11-22T04:12:43;101683.09;;;-0.05;100.00
4858;BME280;58975;51.978;8.472;2023-11-22T04:17:41;101690.28;;;-0.16;100.00
4858;BME280;58975;51.978;8.472;2023-11-22T04:22:39;101686.84;;;-0.20;100.00
4858;BME280;58975;51.978;8.472;2023-11-22T04:27:36;101692.09;;;-0.23;100.00
4858;BME280;58975;51.978;8.472;2023-11-22T04:32:33;101692.06;;;-0.20;100.00
4858;BME280;58975;51.978;8.472;2023-11-22T04:37:30;101704.19;;;-0.16;100.00
4858;BME280;58975;51.978;8.472;2023-11-22T04:42:28;101700.75;;;-0.18;100.00
4858;BME280;58975;51.978;8.472;2023-11-22T04:47:25;101705.06;;;-0.15;100.00
4858;BME280;58975;51.978;8.472;2023-11-22T04:52:22;101713.78;;;-0.15;100.00
4858;BME280;58975;51.978;8.472;2023-11-22T04:57:18;101720.00;;;-0.22;100.00
4858;BME280;58975;51.978;8.472;2023-11-22T05:02:15;101712.16;;;-0.23;100.00
4858;BME280;58975;51.978;8.472;2023-11-22T05:07:12;101711.34;;;-0.27;100.00
4858;BME280;58975;51.978;8.472;2023-11-22T05:12:09;101709.66;;;-0.29;100.00
4858;BME280;58975;51.978;8.472;2023-11-22T05:17:06;101718.47;;;-0.35;100.00
4858;BME280;58975;51.978;8.472;2023-11-22T05:22:03;101745.59;;;-0.40;100.00
4858;BME280;58975;51.978;8.472;2023-11-22T05:26:59;101752.53;;;-0.38;100.00
4858;BME280;58975;51.978;8.472;2023-11-22T05:31:56;101756.13;;;-0.47;100.00
4858;BME280;58975;51.978;8.472;2023-11-22T05:36:52;101762.41;;;-0.58;100.00
4858;BME280;58975;51.978;8.472;2023-11-22T05:41:49;101780.75;;;-0.60;100.00
4858;BME280;58975;51.978;8.472;2023-11-22T05:46:45;101772.00;;;-0.59;100.00
4858;BME280;58975;51.978;8.472;2023-11-22T05:51:42;101758.91;;;-0.57;100.00
4858;BME280;58975;51.978;8.472;2023-11-22T05:56:38;101760.72;;;-0.62;100.00
4858;BME280;58975;51.978;8.472;2023-11-22T06:01:35;101767.69;;;-0.63;100.00
4858;BME280;58975;51.978;8.472;2023-11-22T06:06:31;101767.84;;;-0.72;100.00
4858;BME280;58975;51.978;8.472;2023-11-22T06:11:28;101765.22;;;-0.72;100.00
4858;BME280;58975;51.978;8.472;2023-11-22T06:16:24;101785.09;;;-0.59;100.00
4858;BME280;58975;51.978;8.472;2023-11-22T06:21:21;101780.91;;;-0.72;100.00
4858;BME280;58975;51.978;8.472;2023-11-22T06:26:17;101786.97;;;-0.70;100.00
4858;BME280;58975;51.978;8.472;2023-11-22T06:31:14;101785.22;;;-0.69;100.00
4858;BME280;58975;51.978;8.472;2023-11-22T06:36:10;101787.78;;;-0.65;100.00
4858;BME280;58975;51.978;8.472;2023-11-22T06:41:09;101782.50;;;-0.62;100.00
4858;BME280;58975;51.978;8.472;2023-11-22T06:46:06;101768.59;;;-0.65;100.00
4858;BME280;58975;51.978;8.472;2023-11-22T06:51:02;101767.63;;;-0.55;100.00
4858;BME280;58975;51.978;8.472;2023-11-22T06:55:59;101773.69;;;-0.55;100.00
4858;BME280;58975;51.978;8.472;2023-11-22T07:00:55;101766.72;;;-0.54;100.00
4858;BME280;58975;51.978;8.472;2023-11-22T07:05:51;101764.91;;;-0.47;100.00
4858;BME280;58975;51.978;8.472;2023-11-22T07:10:48;101783.13;;;-0.41;100.00
4858;BME280;58975;51.978;8.472;2023-11-22T07:15:46;101792.63;;;-0.34;100.00
4858;BME280;58975;51.978;8.472;2023-11-22T07:20:44;101797.63;;;-0.19;100.00
4858;BME280;58975;51.978;8.472;2023-11-22T07:25:41;101807.50;;;-0.36;100.00
4858;BME280;58975;51.978;8.472;2023-11-22T07:30:38;101811.91;;;-0.41;100.00
4858;BME280;58975;51.978;8.472;2023-11-22T07:35:37;101798.81;;;-0.40;100.00
4858;BME280;58975;51.978;8.472;2023-11-22T07:40:35;101804.88;;;-0.36;100.00
4858;BME280;58975;51.978;8.472;2023-11-22T07:45:32;101815.25;;;-0.30;100.00
4858;BME280;58975;51.978;8.472;2023-11-22T07:50:28;101819.44;;;-0.17;100.00
4858;BME280;58975;51.978;8.472;2023-11-22T07:55:25;101829.59;;;0.04;100.00
4858;BME280;58975;51.978;8.472;2023-11-22T08:00:22;101843.25;;;0.24;100.00
4858;BME280;58975;51.978;8.472;2023-11-22T08:05:19;101843.88;;;0.40;100.00
4858;BME280;58975;51.978;8.472;2023-11-22T08:10:19;101846.31;;;0.52;100.00
4858;BME280;58975;51.978;8.472;2023-11-22T08:15:16;101852.06;;;0.74;100.00
4858;BME280;58975;51.978;8.472;2023-11-22T08:20:16;101842.88;;;0.99;100.00
4858;BME280;58975;51.978;8.472;2023-11-22T08:25:15;101846.06;;;1.16;100.00
4858;BME280;58975;51.978;8.472;2023-11-22T08:30:12;101855.84;;;1.07;100.00
4858;BME280;58975;51.978;8.472;2023-11-22T08:35:11;101853.34;;;1.01;100.00
4858;BME280;58975;51.978;8.472;2023-11-22T08:40:09;101855.91;;;1.04;100.00
4858;BME280;58975;51.978;8.472;2023-11-22T08:45:10;101852.97;;;1.20;100.00
4858;BME280;58975;51.978;8.472;2023-11-22T08:50:08;101823.78;;;1.37;100.00
4858;BME280;58975;51.978;8.472;2023-11-22T08:55:08;101834.38;;;1.32;100.00
4858;BME280;58975;51.978;8.472;2023-11-22T09:00:06;101833.41;;;1.36;100.00
4858;BME280;58975;51.978;8.472;2023-11-22T09:05:06;101828.72;;;1.52;100.00
4858;BME280;58975;51.978;8.472;2023-11-22T09:10:09;101787.78;;;1.82;100.00
4858;BME280;58975;51.978;8.472;2023-11-22T09:15:08;101767.97;;;2.06;100.00
4858;BME280;58975;51.978;8.472;2023-11-22T09:20:10;101740.44;;;2.20;100.00
4858;BME280;58975;51.978;8.472;2023-11-22T09:25:08;101737.56;;;2.31;100.00
4858;BME280;58975;51.978;8.472;2023-11-22T09:30:08;101742.66;;;2.03;100.00
4858;BME280;58975;51.978;8.472;2023-11-22T09:35:14;101739.97;;;2.05;100.00
4858;BME280;58975;51.978;8.472;2023-11-22T09:40:11;101737.09;;;2.15;100.00
4858;BME280;58975;51.978;8.472;2023-11-22T09:45:09;101723.13;;;2.13;100.00
4858;BME280;58975;51.978;8.472;2023-11-22T09:50:07;101717.16;;;2.41;100.00
4858;BME280;58975;51.978;8.472;2023-11-22T09:55:06;101731.13;;;2.43;100.00
4858;BME280;58975;51.978;8.472;2023-11-22T10:00:05;101734.66;;;2.42;100.00
4858;BME280;58975;51.978;8.472;2023-11-22T10:05:04;101730.81;;;2.55;100.00
4858;BME280;58975;51.978;8.472;2023-11-22T10:10:01;101719.81;;;2.71;100.00
4858;BME280;58975;51.978;8.472;2023-11-22T10:15:14;101719.84;;;3.02;100.00
4858;BME280;58975;51.978;8.472;2023-11-22T10:20:12;101710.66;;;3.17;100.00
4858;BME280;58975;51.978;8.472;2023-11-22T10:25:09;101703.56;;;3.19;100.00
4858;BME280;58975;51.978;8.472;2023-11-22T10:30:07;101709.88;;;3.13;100.00
4858;BME280;58975;51.978;8.472;2023-11-22T10:35:06;101721.22;;;3.15;100.00
4858;BME280;58975;51.978;8.472;2023-11-22T10:40:04;101717.25;;;3.30;100.00
4858;BME280;58975;51.978;8.472;2023-11-22T10:45:03;101697.44;;;3.48;98.96
4858;BME280;58975;51.978;8.472;2023-11-22T10:50:07;101710.13;;;3.33;93.77
4858;BME280;58975;51.978;8.472;2023-11-22T10:55:11;101698.53;;;3.41;92.53
4858;BME280;58975;51.978;8.472;2023-11-22T11:00:09;101684.19;;;3.49;91.52
4858;BME280;58975;51.978;8.472;2023-11-22T11:05:16;101680.88;;;3.72;89.71
4858;BME280;58975;51.978;8.472;2023-11-22T11:10:14;101692.78;;;3.84;89.04
4858;BME280;58975;51.978;8.472;2023-11-22T11:15:21;101663.09;;;3.51;83.93
4858;BME280;58975;51.978;8.472;2023-11-22T11:20:19;101647.16;;;3.81;83.84
4858;BME280;58975;51.978;8.472;2023-11-22T11:25:16;101664.66;;;4.10;84.52
4858;BME280;58975;51.978;8.472;2023-11-22T11:40:40;101652.84;;;4.47;79.14
4858;BME280;58975;51.978;8.472;2023-11-22T11:45:38;101632.78;;;4.16;77.09
4858;BME280;58975;51.978;8.472;2023-11-22T11:50:35;101620.91;;;3.52;76.85
4858;BME280;58975;51.978;8.472;2023-11-22T11:55:32;101608.06;;;3.42;77.83
4858;BME280;58975;51.978;8.472;2023-11-22T12:00:31;101593.00;;;3.99;79.78
4858;BME280;58975;51.978;8.472;2023-11-22T12:05:27;101571.00;;;4.23;78.67
4858;BME280;58975;51.978;8.472;2023-11-22T12:10:24;101530.94;;;4.39;77.26
4858;BME280;58975;51.978;8.472;2023-11-22T12:15:21;101516.63;;;4.21;76.85
4858;BME280;58975;51.978;8.472;2023-11-22T12:20:17;101516.91;;;4.13;76.74
4858;BME280;58975;51.978;8.472;2023-11-22T12:25:15;101503.75;;;3.38;76.23
4858;BME280;58975;51.978;8.472;2023-11-22T12:30:35;101495.59;;;3.45;76.21
4858;BME280;58975;51.978;8.472;2023-11-22T12:35:32;101484.47;;;3.88;76.13
4858;BME280;58975;51.978;8.472;2023-11-22T12:40:30;101488.44;;;4.00;75.83
4858;BME280;58975;51.978;8.472;2023-11-22T12:45:30;101474.84;;;4.10;77.68
4858;BME280;58975;51.978;8.472;2023-11-22T12:50:32;101451.75;;;3.69;75.07
4858;BME280;58975;51.978;8.472;2023-11-22T12:55:28;101461.97;;;3.78;76.25
4858;BME280;58975;51.978;8.472;2023-11-22T13:00:25;101469.00;;;3.77;75.82
4858;BME280;58975;51.978;8.472;2023-11-22T13:05:22;101487.75;;;3.93;75.02
4858;BME280;58975;51.978;8.472;2023-11-22T13:10:19;101494.34;;;3.81;75.15
4858;BME280;58975;51.978;8.472;2023-11-22T13:15:21;101468.66;;;3.88;74.32
4858;BME280;58975;51.978;8.472;2023-11-22T13:20:23;101471.53;;;3.80;73.94
4858;BME280;58975;51.978;8.472;2023-11-22T13:25:20;101484.97;;;3.98;76.07
4858;BME280;58975;51.978;8.472;2023-11-22T13:30:18;101505.53;;;3.88;76.06
4858;BME280;58975;51.978;8.472;2023-11-22T13:35:19;101512.59;;;3.61;76.54
4858;BME280;58975;51.978;8.472;2023-11-22T13:40:17;101497.41;;;3.45;77.94
4858;BME280;58975;51.978;8.472;2023-11-22T13:45:17;101499.69;;;3.29;77.93
4858;BME280;58975;51.978;8.472;2023-11-22T13:50:15;101502.84;;;3.12;79.05
4858;BME280;58975;51.978;8.472;2023-11-22T13:55:16;101510.19;;;3.03;81.01
4858;BME280;58975;51.978;8.472;2023-11-22T14:00:16;101522.47;;;3.02;82.45
4858;BME280;58975;51.978;8.472;2023-11-22T14:05:19;101545.34;;;3.00;84.22
4858;BME280;58975;51.978;8.472;2023-11-22T14:10:15;101541.88;;;2.98;84.01
4858;BME280;58975;51.978;8.472;2023-11-22T14:15:12;101548.41;;;2.86;83.52
4858;BME280;58975;51.978;8.472;2023-11-22T14:20:12;101536.31;;;2.81;85.16
4858;BME280;58975;51.978;8.472;2023-11-22T14:25:13;101536.63;;;2.70;84.41
4858;BME280;58975;51.978;8.472;2023-11-22T14:30:13;101541.16;;;2.65;84.33
4858;BME280;58975;51.978;8.472;2023-11-22T14:35:13;101536.16;;;2.56;83.18
4858;BME280;58975;51.978;8.472;2023-11-22T14:40:11;101530.91;;;2.56;84.62
4858;BME280;58975;51.978;8.472;2023-11-22T14:45:10;101513.38;;;2.57;85.30
4858;BME280;58975;51.978;8.472;2023-11-22T14:50:10;101507.63;;;2.72;86.43
4858;BME280;58975;51.978;8.472;2023-11-22T14:55:08;101501.72;;;2.65;86.67
4858;BME280;58975;51.978;8.472;2023-11-22T15:00:07;101491.97;;;2.69;87.39
4858;BME280;58975;51.978;8.472;2023-11-22T15:05:07;101502.38;;;2.72;87.57
4858;BME280;58975;51.978;8.472;2023-11-22T15:10:08;101513.97;;;2.66;87.20
4858;BME280;58975;51.978;8.472;2023-11-22T15:15:06;101500.59;;;2.74;87.27
4858;BME280;58975;51.978;8.472;2023-11-22T15:20:07;101516.59;;;2.66;87.89
4858;BME280;58975;51.978;8.472;2023-11-22T15:25:06;101510.00;;;2.52;87.54
4858;BME280;58975;51.978;8.472;2023-11-22T15:30:03;101528.59;;;2.46;86.95
4858;BME280;58975;51.978;8.472;2023-11-22T15:35:00;101522.59;;;2.42;86.61
4858;BME280;58975;51.978;8.472;2023-11-22T15:39:57;101519.75;;;2.48;88.09
4858;BME280;58975;51.978;8.472;2023-11-22T15:44:53;101499.22;;;2.61;87.69
4858;BME280;58975;51.978;8.472;2023-11-22T15:49:50;101487.44;;;2.74;87.98
4858;BME280;58975;51.978;8.472;2023-11-22T15:54:47;101519.00;;;2.74;88.94
4858;BME280;58975;51.978;8.472;2023-11-22T15:59:46;101502.88;;;2.84;89.26
4858;BME280;58975;51.978;8.472;2023-11-22T16:04:45;101487.38;;;2.75;89.78
4858;BME280;58975;51.978;8.472;2023-11-22T16:09:42;101479.81;;;2.65;90.57
4858;BME280;58975;51.978;8.472;2023-11-22T16:14:40;101461.44;;;2.63;91.94
4858;BME280;58975;51.978;8.472;2023-11-22T16:19:36;101455.25;;;2.66;92.96
4858;BME280;58975;51.978;8.472;2023-11-22T16:24:33;101459.16;;;2.53;94.31
4858;BME280;58975;51.978;8.472;2023-11-22T16:29:31;101445.97;;;2.54;95.30
4858;BME280;58975;51.978;8.472;2023-11-22T16:34:28;101452.09;;;2.55;95.23
4858;BME280;58975;51.978;8.472;2023-11-22T16:39:25;101457.63;;;2.46;95.74
4858;BME280;58975;51.978;8.472;2023-11-22T16:44:25;101450.16;;;2.60;97.00
4858;BME280;58975;51.978;8.472;2023-11-22T16:49:22;101453.66;;;2.60;97.66
4858;BME280;58975;51.978;8.472;2023-11-22T16:54:18;101435.00;;;2.68;97.28
4858;BME280;58975;51.978;8.472;2023-11-22T16:59:16;101439.84;;;2.54;97.72
4858;BME280;58975;51.978;8.472;2023-11-22T17:04:13;101431.34;;;2.46;99.12
4858;BME280;58975;51.978;8.472;2023-11-22T17:09:09;101427.34;;;2.60;99.52
4858;BME280;58975;51.978;8.472;2023-11-22T17:14:06;101420.53;;;2.55;98.77
4858;BME280;58975;51.978;8.472;2023-11-22T17:19:02;101427.84;;;2.45;99.64
4858;BME280;58975;51.978;8.472;2023-11-22T17:23:59;101418.31;;;2.41;100.00
4858;BME280;58975;51.978;8.472;2023-11-22T17:28:56;101422.44;;;2.50;100.00
4858;BME280;58975;51.978;8.472;2023-11-22T17:33:52;101411.84;;;2.51;100.00
4858;BME280;58975;51.978;8.472;2023-11-22T17:38:49;101401.13;;;2.59;99.51
4858;BME280;58975;51.978;8.472;2023-11-22T17:43:46;101389.28;;;2.46;100.00
4858;BME280;58975;51.978;8.472;2023-11-22T17:48:42;101396.31;;;2.44;100.00
4858;BME280;58975;51.978;8.472;2023-11-22T17:53:40;101379.25;;;2.57;100.00
4858;BME280;58975;51.978;8.472;2023-11-22T17:58:37;101370.75;;;2.49;100.00
4858;BME280;58975;51.978;8.472;2023-11-22T18:03:33;101360.00;;;2.56;100.00
4858;BME280;58975;51.978;8.472;2023-11-22T18:08:31;101358.59;;;2.46;100.00
4858;BME280;58975;51.978;8.472;2023-11-22T18:13:27;101346.31;;;2.47;100.00
4858;BME280;58975;51.978;8.472;2023-11-22T18:18:24;101332.44;;;2.42;100.00
4858;BME280;58975;51.978;8.472;2023-11-22T18:23:21;101350.00;;;2.39;100.00
4858;BME280;58975;51.978;8.472;2023-11-22T18:28:21;101345.75;;;2.35;100.00
4858;BME280;58975;51.978;8.472;2023-11-22T18:33:18;101338.69;;;2.37;100.00
4858;BME280;58975;51.978;8.472;2023-11-22T18:38:15;101334.72;;;2.24;100.00
4858;BME280;58975;51.978;8.472;2023-11-22T18:43:12;101328.47;;;2.28;100.00
4858;BME280;58975;51.978;8.472;2023-11-22T18:48:12;101332.00;;;2.27;100.00
4858;BME280;58975;51.978;8.472;2023-11-22T18:53:08;101334.56;;;2.30;100.00
4858;BME280;58975;51.978;8.472;2023-11-22T18:58:05;101337.25;;;2.27;100.00
4858;BME280;58975;51.978;8.472;2023-11-22T19:03:04;101328.44;;;2.30;100.00
4858;BME280;58975;51.978;8.472;2023-11-22T19:08:00;101325.81;;;2.30;100.00
4858;BME280;58975;51.978;8.472;2023-11-22T19:12:57;101326.28;;;2.43;100.00
4858;BME280;58975;51.978;8.472;2023-11-22T19:17:53;101339.50;;;2.39;100.00
4858;BME280;58975;51.978;8.472;2023-11-22T19:22:50;101336.88;;;2.39;100.00
4858;BME280;58975;51.978;8.472;2023-11-22T19:27:46;101323.72;;;2.39;100.00
4858;BME280;58975;51.978;8.472;2023-11-22T19:32:43;101323.09;;;2.31;100.00
4858;BME280;58975;51.978;8.472;2023-11-22T19:37:39;101305.44;;;2.36;100.00
4858;BME280;58975;51.978;8.472;2023-11-22T19:42:36;101286.13;;;2.37;100.00
4858;BME280;58975;51.978;8.472;2023-11-22T19:47:32;101291.28;;;2.41;100.00
4858;BME280;58975;51.978;8.472;2023-11-22T19:52:29;101276.38;;;2.41;100.00
4858;BME280;58975;51.978;8.472;2023-11-22T19:57:25;101277.00;;;2.48;100.00
4858;BME280;58975;51.978;8.472;2023-11-22T20:02:23;101255.78;;;2.54;100.00
4858;BME280;58975;51.978;8.472;2023-11-22T20:07:19;101260.22;;;2.52;100.00
4858;BME280;58975;51.978;8.472;2023-11-22T20:12:16;101253.66;;;2.65;100.00
4858;BME280;58975;51.978;8.472;2023-11-22T20:17:13;101231.59;;;2.69;100.00
4858;BME280;58975;51.978;8.472;2023-11-22T20:22:09;101247.06;;;2.78;100.00
4858;BME280;58975;51.978;8.472;2023-11-22T20:27:06;101255.47;;;2.88;100.00
4858;BME280;58975;51.978;8.472;2023-11-22T20:32:02;101249.72;;;3.01;100.00
4858;BME280;58975;51.978;8.472;2023-11-22T20:37:00;101265.00;;;3.15;100.00
4858;BME280;58975;51.978;8.472;2023-11-22T20:41:56;101254.03;;;3.27;100.00
4858;BME280;58975;51.978;8.472;2023-11-22T20:46:53;101235.91;;;3.43;100.00
4858;BME280;58975;51.978;8.472;2023-11-22T20:51:49;101229.72;;;3.44;100.00
4858;BME280;58975;51.978;8.472;2023-11-22T20:56:46;101223.63;;;3.42;100.00
4858;BME280;58975;51.978;8.472;2023-11-22T21:01:43;101240.13;;;3.47;100.00
4858;BME280;58975;51.978;8.472;2023-11-22T21:06:43;101241.03;;;3.46;100.00
4858;BME280;58975;51.978;8.472;2023-11-22T21:11:43;101230.41;;;3.49;100.00
4858;BME280;58975;51.978;8.472;2023-11-22T21:16:40;101215.97;;;3.59;100.00
4858;BME280;58975;51.978;8.472;2023-11-22T21:21:38;101222.56;;;3.69;99.55
4858;BME280;58975;51.978;8.472;2023-11-22T21:26:34;101205.00;;;3.69;99.00
4858;BME280;58975;51.978;8.472;2023-11-22T21:31:30;101206.66;;;3.72;98.66
4858;BME280;58975;51.978;8.472;2023-11-22T21:36:27;101193.59;;;3.69;98.99
4858;BME280;58975;51.978;8.472;2023-11-22T21:41:24;101187.25;;;3.74;98.46
4858;BME280;58975;51.978;8.472;2023-11-22T21:46:20;101163.22;;;3.82;97.31
4858;BME280;58975;51.978;8.472;2023-11-22T21:51:17;101167.44;;;3.86;96.36
4858;BME280;58975;51.978;8.472;2023-11-22T21:56:13;101149.13;;;3.83;96.38
4858;BME280;58975;51.978;8.472;2023-11-22T22:01:10;101151.50;;;3.89;95.24
4858;BME280;58975;51.978;8.472;2023-11-22T22:06:08;101148.63;;;3.95;94.71
4858;BME280;58975;51.978;8.472;2023-11-22T22:11:04;101143.91;;;4.03;92.93
4858;BME280;58975;51.978;8.472;2023-11-22T22:16:01;101127.03;;;4.07;92.74
4858;BME280;58975;51.978;8.472;2023-11-22T22:20:58;101116.09;;;4.16;92.45
4858;BME280;58975;51.978;8.472;2023-11-22T22:25:54;101114.31;;;4.17;93.13
4858;BME280;58975;51.978;8.472;2023-11-22T22:30:51;101107.53;;;4.11;93.23
4858;BME280;58975;51.978;8.472;2023-11-22T22:35:47;101083.53;;;4.17;94.45
4858;BME280;58975;51.978;8.472;2023-11-22T22:40:45;101070.34;;;4.17;94.65
4858;BME280;58975;51.978;8.472;2023-11-22T22:45:41;101073.81;;;4.19;95.36
4858;BME280;58975;51.978;8.472;2023-11-22T22:50:38;101044.72;;;4.21;95.68
4858;BME280;58975;51.978;8.472;2023-11-22T22:55:36;101062.06;;;4.26;96.54
4858;BME280;58975;51.978;8.472;2023-11-22T23:00:32;101054.00;;;4.29;97.02
4858;BME280;58975;51.978;8.472;2023-11-22T23:05:38;101054.56;;;4.36;98.01
4858;BME280;58975;51.978;8.472;2023-11-22T23:10:34;101053.72;;;4.36;97.83
4858;BME280;58975;51.978;8.472;2023-11-22T23:15:31;101055.28;;;4.40;98.88
4858;BME280;58975;51.978;8.472;2023-11-22T23:20:27;101051.88;;;4.38;100.00
4858;BME280;58975;51.978;8.472;2023-11-22T23:25:32;101044.75;;;4.40;100.00
4858;BME280;58975;51.978;8.472;2023-11-22T23:30:28;101029.63;;;4.43;100.00
4858;BME280;58975;51.978;8.472;2023-11-22T23:35:25;101022.53;;;4.45;100.00
4858;BME280;58975;51.978;8.472;2023-11-22T23:40:21;101035.50;;;4.50;100.00
4858;BME280;58975;51.978;8.472;2023-11-22T23:45:21;101031.66;;;4.57;100.00
4858;BME280;58975;51.978;8.472;2023-11-22T23:50:19;101019.91;;;4.64;100.00
4858;BME280;58975;51.978;8.472;2023-11-22T23:55:15;101023.19;;;4.69;100.00
